Dades de l'estació automàtica la Pobla de Segur

?
?
Resum diari 22:30 TU
Dades diàries de l'estació meteorològica
Temperatura mitjana 18.6 °C
Temperatura màxima 26.3 °C 14:52 TU
Temperatura mínima 11.6 °C 6:30 TU
Humitat relativa mitjana 67%
Precipitació acumulada 0.0 mm
Ratxa màxima del vent (10 m) 25.6 km/h - 177º 15:01 TU
Pressió atmosfèrica mitjana 1011.6 hPa
Irradiació solar global 18.2 MJ/m2

El tram horari està expressat en Temps Universal (TU). Cal sumar una hora en horari d'hivern i dues en horari d'estiu per passar a l'hora oficial.

la Pobla de Segur

Metadades estació meteorol´gica
Municipi La Pobla de Segur
Comarca Pallars Jussà
Altitud 508 m
Data alta 18.11.2016
Estat actual Operativa
Dades de període
Període
TU
TM
°C
TX
°C
TN
°C
HRM
%
PPT
mm
VVM (10 m)
km/h
DVM (10 m)
graus
VVX (10 m)
km/h
PM
hPa
RS
W/m2
00:00 - 00:30 14.5 14.6 14.4 79 0.0 12.6 341 21.6 1013.9 0
00:30 - 01:00 14.4 14.7 14.2 80 0.0 10.8 334 19.8 1013.9 0
01:00 - 01:30 14.3 14.5 14.2 80 0.0 10.4 340 20.5 1013.8 0
01:30 - 02:00 14.2 14.3 14.0 80 0.0 10.8 340 20.2 1013.6 0
02:00 - 02:30 13.8 14.0 13.5 81 0.0 11.2 340 20.2 1013.6 0
02:30 - 03:00 13.8 13.9 13.6 81 0.0 13.0 341 21.2 1013.6 0
03:00 - 03:30 13.8 14.1 13.7 81 0.0 14.4 329 22.7 1013.5 0
03:30 - 04:00 14.1 14.4 13.6 80 0.0 11.9 334 19.8 1013.3 0
04:00 - 04:30 14.2 14.4 13.7 80 0.0 6.8 325 15.1 1013.2 0
04:30 - 05:00 13.3 13.7 13.0 85 0.0 2.9 290 10.8 1013.3 0
05:00 - 05:30 12.9 13.1 12.5 89 0.0 1.4 210 6.1 1013.6 0
05:30 - 06:00 12.1 12.5 11.8 93 0.0 0.4 322 2.5 1013.9 2
06:00 - 06:30 11.7 11.8 11.6 95 0.0 1.1 4 5.0 1014.1 20
06:30 - 07:00 12.4 13.8 11.6 94 0.0 1.1 353 4.7 1014.0 106
07:00 - 07:30 15.2 16.0 13.9 80 0.0 1.1 167 4.0 1013.4 217
07:30 - 08:00 16.0 16.4 15.4 77 0.0 3.2 144 6.5 1013.1 315
08:00 - 08:30 17.0 17.3 16.3 72 0.0 4.0 151 8.3 1012.9 409
08:30 - 09:00 17.6 18.6 16.8 69 0.0 4.3 171 8.6 1012.9 494
09:00 - 09:30 18.7 19.9 18.1 65 0.0 4.7 174 9.4 1012.5 571
09:30 - 10:00 20.1 20.8 19.5 59 0.0 4.7 164 9.4 1012.0 636
10:00 - 10:30 21.1 21.5 20.8 58 0.0 6.1 150 13.0 1011.6 687
10:30 - 11:00 22.0 22.5 21.3 58 0.0 7.9 145 13.7 1011.3 737
11:00 - 11:30 23.4 24.8 22.2 53 0.0 5.4 167 11.5 1010.6 799
11:30 - 12:00 24.5 25.1 24.2 45 0.0 7.2 146 15.8 1010.0 799
12:00 - 12:30 24.7 25.2 24.3 43 0.0 9.7 143 18.0 1009.5 756
12:30 - 13:00 25.0 25.6 24.1 43 0.0 6.5 159 15.1 1009.2 563
13:00 - 13:30 25.3 25.8 24.1 43 0.0 6.8 158 15.1 1008.8 729
13:30 - 14:00 24.4 25.8 23.6 45 0.0 7.9 161 18.0 1008.7 282
14:00 - 14:30 24.9 25.9 23.9 43 0.0 8.6 166 20.2 1008.3 478
14:30 - 15:00 25.8 26.3 25.1 40 0.0 7.6 186 23.4 1008.0 553
15:00 - 15:30 25.6 26.1 25.0 40 0.0 5.8 212 25.6 1008.1 417
15:30 - 16:00 24.6 26.2 23.3 44 0.0 6.5 305 19.1 1008.3 189
16:00 - 16:30 23.5 23.8 23.1 47 0.0 8.3 319 18.4 1008.6 246
16:30 - 17:00 22.4 23.0 21.7 51 0.0 4.0 309 11.2 1008.9 90
17:00 - 17:30 20.4 21.7 19.6 64 0.0 5.0 326 9.7 1009.3 25
17:30 - 18:00 19.7 19.8 19.6 64 0.0 7.6 330 12.6 1009.6 5
18:00 - 18:30 19.2 19.5 19.0 66 0.0 4.7 327 11.2 1010.0 0
18:30 - 19:00 19.0 19.3 18.8 67 0.0 4.7 315 12.6 1010.6 0
19:00 - 19:30 19.3 19.4 19.1 64 0.0 7.2 336 13.7 1011.0 0
19:30 - 20:00 18.7 19.0 18.1 68 0.0 1.4 350 5.4 1011.5 0
20:00 - 20:30 18.4 18.7 17.9 70 0.0 4.7 334 12.6 1011.9 0
20:30 - 21:00 18.4 18.8 17.8 70 0.0 6.8 354 14.0 1011.8 0
21:00 - 21:30 18.3 18.5 18.0 70 0.0 9.0 344 17.3 1011.8 0
21:30 - 22:00 17.7 18.2 17.4 73 0.0 6.8 332 13.3 1012.2 0
22:00 - 22:30 17.2 17.4 16.8 76 0.0 6.5 338 14.8 1012.6 0
22:30 - 23:00 16.8 17.0 16.6 77 0.0 7.2 343 17.3 1012.8 0

Les dades en taronja només han passat un control de qualitat automàtic. Resta pendent la seva validació definitiva.